Wetterdaten: Woche 25.05.15 - 31.05.15 (KW22)
Datum Zeit Temp. A. Mod.Schuppen Waschkche Feuchte A. Luftdruck Regen Wind Richtung Sonnenschein Helligkeit Solar
25.05.2015 00:00 13,7 C 10,0 C 17,2 C 56 % 1015,9 hPa 0,0 l/m 2,7 km/h (1 Bft) NW 0,00 h 0 lux 0 W/m
25.05.2015 01:00 11,9 C 8,7 C 16,9 C 61 % 1016,0 hPa 0,0 l/m 0,0 km/h (0 Bft) N 0,00 h 0 lux 0 W/m
25.05.2015 02:00 12,1 C 10,2 C 16,7 C 64 % 1016,0 hPa 0,0 l/m 0,4 km/h (0 Bft) N-NW 0,00 h 0 lux 0 W/m
25.05.2015 03:00 12,8 C 11,5 C 16,6 C 64 % 1015,7 hPa 0,0 l/m 2,7 km/h (1 Bft) W 0,00 h 0 lux 0 W/m
25.05.2015 04:00 12,4 C 10,6 C 16,5 C 70 % 1015,0 hPa 0,0 l/m 4,7 km/h (1 Bft) W 0,00 h 0 lux 0 W/m
25.05.2015 05:00 12,0 C 10,5 C 16,4 C 75 % 1015,0 hPa 0,0 l/m 0,3 km/h (0 Bft) W-SW 0,00 h 0 lux 0 W/m
25.05.2015 06:00 12,0 C 11,1 C 16,4 C 79 % 1015,0 hPa 0,0 l/m 3,1 km/h (1 Bft) W-SW 0,00 h 2,30 klux 16 W/m
25.05.2015 07:00 12,0 C 12,3 C 16,3 C 81 % 1015,0 hPa 0,0 l/m 5,9 km/h (2 Bft) SW 0,00 h 4,59 klux 31 W/m
25.05.2015 08:00 12,1 C 12,6 C 16,2 C 87 % 1015,0 hPa 0,0 l/m 7,5 km/h (2 Bft) W 0,00 h 4,64 klux 32 W/m
25.05.2015 09:00 12,3 C 13,0 C 16,1 C 89 % 1015,0 hPa 0,0 l/m 3,3 km/h (1 Bft) S-SW 0,00 h 6,68 klux 46 W/m
25.05.2015 10:00 12,0 C 12,8 C 16,1 C 89 % 1015,0 hPa 3,2 l/m 6,1 km/h (2 Bft) N-NO 0,00 h 5,67 klux 39 W/m
25.05.2015 11:00 11,8 C 19,0 C 16,0 C 82 % 1015,0 hPa 0,0 l/m 11,9 km/h (2 Bft) N-NO 0,00 h 42,1 klux 288 W/m
25.05.2015 12:00 13,8 C 26,3 C 16,0 C 70 % 1014,9 hPa 0,0 l/m 8,3 km/h (2 Bft) NO 0,08 h 47,1 klux 322 W/m
25.05.2015 13:00 14,4 C 26,9 C 16,0 C 67 % 1014,9 hPa 0,0 l/m 7,6 km/h (2 Bft) NO 0,00 h 47,0 klux 322 W/m
25.05.2015 14:00 15,7 C 31,6 C 16,1 C 62 % 1014,3 hPa 0,0 l/m 10,7 km/h (2 Bft) N 0,58 h 89,5 klux 612 W/m
25.05.2015 15:00 16,0 C 27,1 C 16,3 C 62 % 1013,9 hPa 0,0 l/m 12,6 km/h (2 Bft) N-NO 0,67 h 89,6 klux 613 W/m
25.05.2015 16:00 16,8 C 27,7 C 16,4 C 57 % 1013,9 hPa 0,0 l/m 13,7 km/h (3 Bft) N-NW 0,17 h 48,4 klux 331 W/m
25.05.2015 17:00 16,1 C 19,9 C 16,5 C 56 % 1013,9 hPa 0,0 l/m 13,6 km/h (3 Bft) N-NW 0,00 h 20,9 klux 143 W/m
25.05.2015 18:00 16,0 C 20,1 C 16,6 C 56 % 1013,9 hPa 0,0 l/m 13,8 km/h (3 Bft) N 0,43 h 28,2 klux 193 W/m
25.05.2015 19:00 15,8 C 18,1 C 16,5 C 56 % 1014,1 hPa 0,0 l/m 13,3 km/h (3 Bft) N 0,00 h 15,3 klux 105 W/m
25.05.2015 20:00 14,7 C 14,3 C 16,4 C 59 % 1014,9 hPa 0,0 l/m 13,3 km/h (3 Bft) N 0,00 h 2,82 klux 19 W/m
25.05.2015 21:00 13,8 C 12,7 C 16,2 C 64 % 1015,4 hPa 0,0 l/m 16,6 km/h (3 Bft) N 0,00 h 686 lux 3 W/m
25.05.2015 22:00 13,0 C 11,5 C 15,9 C 65 % 1016,0 hPa 0,0 l/m 16,5 km/h (3 Bft) N-NW 0,00 h 2,53 klux 0 W/m
25.05.2015 23:00 12,3 C 11,2 C 15,7 C 66 % 1016,0 hPa 0,0 l/m 19,4 km/h (3 Bft) N 0,00 h 0 lux 0 W/m
26.05.2015 00:00 11,7 C 10,5 C 15,5 C 68 % 1017,0 hPa 0,0 l/m 11,8 km/h (2 Bft) N 0,00 h 1,53 klux 0 W/m
26.05.2015 01:00 11,3 C 10,3 C 15,4 C 69 % 1016,6 hPa 0,0 l/m 14,3 km/h (3 Bft) NW 0,00 h 200 klux 0 W/m
26.05.2015 02:00 10,8 C 9,9 C 15,1 C 71 % 1017,0 hPa 0,0 l/m 15,1 km/h (3 Bft) W-NW 0,00 h 200 klux 0 W/m
26.05.2015 03:00 10,4 C 9,3 C 14,7 C 72 % 1017,0 hPa 0,0 l/m 14,4 km/h (3 Bft) NW 0,00 h 0 lux 0 W/m
26.05.2015 04:00 10,1 C 9,0 C 14,6 C 75 % 1017,3 hPa 0,0 l/m 14,4 km/h (3 Bft) N 0,00 h 15,4 klux 0 W/m
26.05.2015 05:00 9,9 C 8,7 C 14,5 C 77 % 1018,0 hPa 0,0 l/m 8,4 km/h (2 Bft) N-NW 0,00 h 18,7 klux 280 W/m
26.05.2015 06:00 10,0 C 9,6 C 14,5 C 77 % 1018,0 hPa 0,0 l/m 8,8 km/h (2 Bft) N-NW 0,08 h 8,96 klux 61 W/m
26.05.2015 07:00 10,2 C 11,8 C 14,4 C 76 % 1018,8 hPa 0,0 l/m 8,7 km/h (2 Bft) N 0,00 h 12,4 klux 84 W/m
26.05.2015 08:00 11,0 C 15,5 C 14,3 C 68 % 1019,0 hPa 0,0 l/m 11,5 km/h (2 Bft) NW 0,08 h 43,3 klux 296 W/m
26.05.2015 09:00 12,0 C 18,9 C 14,2 C 63 % 1019,2 hPa 0,0 l/m 14,2 km/h (3 Bft) NW 0,58 h 59,1 klux 404 W/m
26.05.2015 10:00 13,1 C 22,5 C 14,3 C 58 % 1020,0 hPa 0,0 l/m 18,6 km/h (3 Bft) NW 0,65 h 71,5 klux 489 W/m
26.05.2015 11:00 13,5 C 20,9 C 14,5 C 58 % 1020,0 hPa 0,0 l/m 20,5 km/h (4 Bft) W-NW 0,17 h 45,5 klux 311 W/m
26.05.2015 12:00 13,6 C 18,0 C 14,7 C 58 % 1020,0 hPa 0,0 l/m 20,2 km/h (4 Bft) W 0,08 h 38,4 klux 263 W/m
26.05.2015 13:00 12,1 C 13,5 C 14,7 C 65 % 1020,2 hPa 0,0 l/m 16,7 km/h (3 Bft) N-NO 0,00 h 14,3 klux 98 W/m
26.05.2015 14:00 13,8 C 23,1 C 14,8 C 59 % 1020,0 hPa 0,0 l/m 16,7 km/h (3 Bft) N-NW 0,42 h 51,8 klux 354 W/m
26.05.2015 15:00 14,7 C 22,6 C 14,9 C 55 % 1020,0 hPa 0,0 l/m 19,0 km/h (3 Bft) N-NO 0,25 h 43,6 klux 298 W/m
26.05.2015 16:00 14,9 C 20,2 C 15,1 C 53 % 1020,0 hPa 0,0 l/m 16,3 km/h (3 Bft) N-NW 0,25 h 38,4 klux 263 W/m
26.05.2015 17:00 15,5 C 21,2 C 15,3 C 48 % 1020,5 hPa 0,0 l/m 22,0 km/h (4 Bft) N 0,15 h 36,7 klux 251 W/m
26.05.2015 18:00 15,1 C 18,9 C 15,3 C 51 % 1020,9 hPa 0,0 l/m 20,5 km/h (4 Bft) N 0,17 h 43,1 klux 295 W/m
26.05.2015 19:00 14,5 C 16,3 C 15,4 C 52 % 1021,6 hPa 0,0 l/m 18,9 km/h (3 Bft) N 0,07 h 16,7 klux 114 W/m
26.05.2015 20:00 13,6 C 13,3 C 15,3 C 57 % 1022,0 hPa 0,0 l/m 18,1 km/h (3 Bft) N-NO 0,08 h 23,3 klux 160 W/m
26.05.2015 21:00 12,5 C 10,5 C 15,3 C 62 % 1022,7 hPa 0,0 l/m 15,9 km/h (3 Bft) N 0,00 h 1,60 klux 9 W/m
26.05.2015 22:00 11,5 C 8,7 C 15,1 C 65 % 1023,0 hPa 0,0 l/m 8,0 km/h (2 Bft) N-NO 0,00 h 128 lux 0 W/m
26.05.2015 23:00 10,5 C 7,2 C 15,0 C 68 % 1023,1 hPa 0,0 l/m 7,7 km/h (2 Bft) N 0,00 h 0 lux 0 W/m
27.05.2015 00:00 11,1 C 9,7 C 14,6 C 67 % 1023,9 hPa 0,0 l/m 16,0 km/h (3 Bft) NW 0,00 h 200 klux 0 W/m
27.05.2015 01:00 11,2 C 10,0 C 14,8 C 66 % 1024,0 hPa 0,0 l/m 12,5 km/h (2 Bft) N-NW 0,00 h 200 klux 0 W/m
27.05.2015 02:00 10,9 C 9,6 C 14,8 C 67 % 1024,0 hPa 0,0 l/m 3,6 km/h (1 Bft) N-NW 0,00 h 5,04 klux 0 W/m
27.05.2015 03:00 10,8 C 9,2 C 14,7 C 69 % 1024,0 hPa 0,0 l/m 1,1 km/h (1 Bft) W-NW 0,00 h 0 lux 0 W/m
27.05.2015 04:00 10,5 C 9,2 C 14,7 C 71 % 1024,0 hPa 0,0 l/m 6,8 km/h (2 Bft) W 0,00 h 102 klux 0 W/m
27.05.2015 05:00 10,4 C 9,2 C 14,6 C 71 % 1024,0 hPa 0,0 l/m 8,4 km/h (2 Bft) W 0,00 h 12,5 klux 186 W/m
27.05.2015 06:00 10,4 C 10,0 C 14,5 C 73 % 1024,0 hPa 0,0 l/m 9,6 km/h (2 Bft) W 0,10 h 18,0 klux 123 W/m
27.05.2015 07:00 10,8 C 11,2 C 14,4 C 72 % 1024,0 hPa 0,0 l/m 7,3 km/h (2 Bft) W 0,17 h 18,2 klux 124 W/m
27.05.2015 08:00 12,4 C 17,4 C 14,3 C 61 % 1023,4 hPa 0,0 l/m 13,5 km/h (3 Bft) W-NW 0,83 h 37,1 klux 254 W/m
27.05.2015 09:00 13,5 C 23,7 C 14,0 C 55 % 1024,1 hPa 0,0 l/m 12,8 km/h (3 Bft) W-NW 0,83 h 62,3 klux 426 W/m
27.05.2015 10:00 14,9 C 32,3 C 14,4 C 49 % 1024,0 hPa 0,0 l/m 10,7 km/h (2 Bft) W-NW 0,83 h 77,2 klux 528 W/m
27.05.2015 11:00 15,5 C 30,9 C 14,6 C 47 % 1024,0 hPa 0,0 l/m 13,3 km/h (3 Bft) W 0,33 h 67,5 klux 462 W/m
27.05.2015 12:00 16,6 C 35,6 C 15,0 C 46 % 1023,6 hPa 0,0 l/m 12,3 km/h (2 Bft) SW 0,50 h 68,5 klux 468 W/m
27.05.2015 13:00 17,2 C 31,3 C 15,5 C 45 % 1022,9 hPa 0,0 l/m 12,5 km/h (2 Bft) SW 0,08 h 51,4 klux 351 W/m
27.05.2015 14:00 18,0 C 31,5 C 16,1 C 45 % 1022,6 hPa 0,0 l/m 15,7 km/h (3 Bft) W-SW 0,17 h 55,2 klux 377 W/m
27.05.2015 15:00 18,5 C 32,6 C 16,5 C 43 % 1021,9 hPa 0,0 l/m 14,6 km/h (3 Bft) SW 0,65 h 73,1 klux 500 W/m
27.05.2015 16:00 18,4 C 27,3 C 16,9 C 43 % 1021,3 hPa 0,0 l/m 12,2 km/h (2 Bft) S 0,00 h 32,5 klux 223 W/m
27.05.2015 17:00 19,4 C 31,7 C 17,1 C 40 % 1020,7 hPa 0,0 l/m 13,7 km/h (3 Bft) S 0,83 h 64,5 klux 441 W/m
27.05.2015 18:00 19,3 C 27,0 C 17,6 C 41 % 1019,9 hPa 0,0 l/m 18,0 km/h (3 Bft) S 0,68 h 41,5 klux 284 W/m
27.05.2015 19:00 18,6 C 22,2 C 17,6 C 43 % 1019,2 hPa 0,0 l/m 16,7 km/h (3 Bft) S-SW 0,75 h 23,8 klux 163 W/m
27.05.2015 20:00 17,4 C 17,0 C 17,4 C 45 % 1018,6 hPa 0,0 l/m 15,3 km/h (3 Bft) S 0,00 h 6,01 klux 41 W/m
27.05.2015 21:00 16,1 C 13,3 C 17,1 C 50 % 1017,9 hPa 0,0 l/m 14,9 km/h (3 Bft) S 0,00 h 18,8 klux 8 W/m
27.05.2015 22:00 15,5 C 12,6 C 16,8 C 52 % 1017,9 hPa 0,0 l/m 17,6 km/h (3 Bft) S 0,00 h 96,5 klux 0 W/m
27.05.2015 23:00 14,8 C 12,0 C 16,4 C 54 % 1016,9 hPa 0,0 l/m 24,8 km/h (4 Bft) S 0,00 h 0 lux 0 W/m
28.05.2015 00:00 14,1 C 11,9 C 16,2 C 59 % 1016,9 hPa 0,0 l/m 19,7 km/h (3 Bft) S 0,00 h 105 lux 0 W/m
28.05.2015 01:00 13,6 C 11,9 C 15,9 C 61 % 1016,2 hPa 0,0 l/m 19,8 km/h (4 Bft) S 0,00 h 200 klux 0 W/m
28.05.2015 02:00 13,4 C 12,1 C 15,4 C 62 % 1015,8 hPa 0,0 l/m 18,4 km/h (3 Bft) S 0,00 h 4,90 klux 0 W/m
28.05.2015 03:00 13,3 C 11,8 C 15,6 C 63 % 1015,0 hPa 0,0 l/m 13,8 km/h (3 Bft) S 0,00 h 0 lux 0 W/m
28.05.2015 04:00 13,3 C 11,9 C 15,5 C 64 % 1014,3 hPa 0,0 l/m 15,8 km/h (3 Bft) S 0,00 h 200 klux 0 W/m
28.05.2015 05:00 13,5 C 12,3 C 15,4 C 64 % 1013,9 hPa 0,0 l/m 17,3 km/h (3 Bft) S 0,00 h 20,4 klux 232 W/m
28.05.2015 06:00 13,5 C 13,0 C 15,4 C 65 % 1013,9 hPa 0,0 l/m 16,4 km/h (3 Bft) S 0,08 h 18,1 klux 124 W/m
28.05.2015 07:00 14,5 C 15,8 C 15,4 C 64 % 1013,9 hPa 0,0 l/m 20,6 km/h (4 Bft) S-SW 0,00 h 14,3 klux 98 W/m
28.05.2015 08:00 15,3 C 18,1 C 15,6 C 62 % 1013,9 hPa 0,0 l/m 28,7 km/h (5 Bft) SW 0,17 h 43,1 klux 294 W/m
28.05.2015 09:00 16,4 C 22,1 C 15,8 C 58 % 1013,6 hPa 0,0 l/m 31,0 km/h (5 Bft) W-SW 0,58 h 62,9 klux 431 W/m
28.05.2015 10:00 17,4 C 25,3 C 16,1 C 58 % 1013,1 hPa 0,0 l/m 32,6 km/h (5 Bft) SW 0,67 h 78,5 klux 537 W/m
28.05.2015 11:00 17,7 C 24,1 C 16,4 C 56 % 1012,9 hPa 0,0 l/m 33,3 km/h (5 Bft) SW 0,08 h 34,8 klux 238 W/m
28.05.2015 12:00 18,6 C 27,0 C 16,6 C 52 % 1012,9 hPa 0,0 l/m 37,6 km/h (5 Bft) SW 0,40 h 71,0 klux 485 W/m
28.05.2015 13:00 19,9 C 30,9 C 16,8 C 48 % 1012,8 hPa 0,0 l/m 36,6 km/h (5 Bft) SW 0,60 h 84,1 klux 576 W/m
28.05.2015 14:00 18,6 C 23,4 C 17,1 C 54 % 1012,9 hPa 0,0 l/m 36,7 km/h (5 Bft) W-SW 0,17 h 48,5 klux 332 W/m
28.05.2015 15:00 19,5 C 29,3 C 17,3 C 55 % 1012,4 hPa 0,0 l/m 33,4 km/h (5 Bft) SW 0,75 h 86,6 klux 593 W/m
28.05.2015 16:00 16,4 C 18,5 C 17,5 C 63 % 1012,7 hPa 0,0 l/m 28,2 km/h (5 Bft) W 0,08 h 19,3 klux 132 W/m
28.05.2015 17:00 13,5 C 13,0 C 17,2 C 81 % 1012,9 hPa 0,7 l/m 23,5 km/h (4 Bft) W-NW 0,08 h 26,4 klux 180 W/m
28.05.2015 18:00 14,0 C 14,5 C 16,9 C 81 % 1012,9 hPa 0,0 l/m 18,8 km/h (3 Bft) W-SW 0,08 h 30,1 klux 206 W/m
28.05.2015 19:00 14,1 C 13,4 C 16,9 C 83 % 1012,9 hPa 0,0 l/m 12,1 km/h (2 Bft) W-SW 0,00 h 2,41 klux 17 W/m
28.05.2015 20:00 13,9 C 12,8 C 16,8 C 82 % 1012,9 hPa 0,0 l/m 9,5 km/h (2 Bft) SW 0,00 h 2,32 klux 16 W/m
28.05.2015 21:00 13,5 C 12,0 C 16,7 C 78 % 1013,9 hPa 0,0 l/m 6,4 km/h (2 Bft) W-SW 0,00 h 18,7 klux 7 W/m
28.05.2015 22:00 12,9 C 11,4 C 16,6 C 76 % 1014,0 hPa 0,0 l/m 5,6 km/h (2 Bft) SO 0,00 h 137 lux 0 W/m
28.05.2015 23:00 12,4 C 10,2 C 16,5 C 77 % 1014,0 hPa 0,0 l/m 0,5 km/h (0 Bft) SW 0,00 h 0 lux 0 W/m
29.05.2015 00:00 12,1 C 10,3 C 16,4 C 78 % 1014,0 hPa 0,0 l/m 1,9 km/h (1 Bft) SW 0,00 h 194 lux 0 W/m
29.05.2015 01:00 12,2 C 10,2 C 16,3 C 79 % 1013,7 hPa 0,0 l/m 0,0 km/h (0 Bft) N 0,00 h 1,55 klux 0 W/m
29.05.2015 02:00 12,0 C 10,2 C 16,3 C 81 % 1013,0 hPa 0,0 l/m 0,0 km/h (0 Bft) N 0,00 h 157 klux 0 W/m
29.05.2015 03:00 11,6 C 9,4 C 16,2 C 83 % 1012,9 hPa 0,0 l/m 0,0 km/h (0 Bft) N 0,00 h 0 lux 0 W/m
29.05.2015 04:00 11,2 C 9,2 C 16,1 C 83 % 1012,0 hPa 0,0 l/m 1,2 km/h (1 Bft) S-SO 0,00 h 15,7 klux 0 W/m
29.05.2015 05:00 10,7 C 7,9 C 16,0 C 83 % 1012,0 hPa 0,0 l/m 7,9 km/h (2 Bft) S-SO 0,08 h 18,8 klux 235 W/m
29.05.2015 06:00 10,4 C 9,3 C 15,5 C 82 % 1012,0 hPa 0,0 l/m 13,3 km/h (3 Bft) S-SW 0,00 h 5,26 klux 36 W/m
29.05.2015 07:00 11,1 C 13,1 C 15,6 C 79 % 1011,6 hPa 0,0 l/m 11,8 km/h (2 Bft) SW 0,08 h 18,6 klux 127 W/m
29.05.2015 08:00 12,0 C 17,2 C 15,0 C 74 % 1011,0 hPa 0,0 l/m 12,1 km/h (2 Bft) S 0,00 h 24,1 klux 165 W/m
29.05.2015 09:00 13,1 C 20,9 C 14,6 C 70 % 1010,9 hPa 0,0 l/m 15,2 km/h (3 Bft) S-SW 0,17 h 41,5 klux 284 W/m
29.05.2015 10:00 14,3 C 24,1 C 14,8 C 65 % 1010,9 hPa 0,0 l/m 22,4 km/h (4 Bft) SW 0,75 h 53,3 klux 364 W/m
29.05.2015 11:00 15,2 C 24,8 C 15,1 C 58 % 1009,9 hPa 0,0 l/m 26,9 km/h (4 Bft) SW 0,25 h 60,3 klux 413 W/m
29.05.2015 12:00 15,8 C 24,5 C 15,4 C 57 % 1009,8 hPa 0,0 l/m 28,2 km/h (5 Bft) SW 0,17 h 48,0 klux 328 W/m
29.05.2015 13:00 16,0 C 23,6 C 15,6 C 55 % 1008,9 hPa 0,0 l/m 29,5 km/h (5 Bft) SW 0,08 h 49,4 klux 338 W/m
29.05.2015 14:00 16,6 C 24,4 C 15,8 C 55 % 1008,3 hPa 0,0 l/m 29,7 km/h (5 Bft) SW 0,17 h 66,5 klux 455 W/m
29.05.2015 15:00 17,6 C 26,0 C 16,2 C 51 % 1007,8 hPa 0,0 l/m 36,9 km/h (5 Bft) SW 0,75 h 74,4 klux 509 W/m
29.05.2015 16:00 18,1 C 25,5 C 16,7 C 47 % 1007,0 hPa 0,0 l/m 34,4 km/h (5 Bft) SW 0,67 h 75,0 klux 513 W/m
29.05.2015 17:00 17,4 C 20,7 C 17,0 C 44 % 1006,8 hPa 0,0 l/m 39,6 km/h (6 Bft) W-SW 0,00 h 25,6 klux 175 W/m
29.05.2015 18:00 16,6 C 18,3 C 16,8 C 49 % 1006,9 hPa 0,0 l/m 35,7 km/h (5 Bft) W-SW 0,08 h 34,0 klux 233 W/m
29.05.2015 19:00 15,8 C 15,4 C 16,6 C 54 % 1006,9 hPa 0,0 l/m 34,8 km/h (5 Bft) W-SW 0,00 h 2,61 klux 18 W/m
29.05.2015 20:00 15,1 C 13,7 C 16,4 C 60 % 1006,9 hPa 0,0 l/m 35,3 km/h (5 Bft) SW 0,08 h 6,48 klux 44 W/m
29.05.2015 21:00 12,9 C 11,6 C 16,2 C 69 % 1007,3 hPa 0,4 l/m 32,6 km/h (5 Bft) SW 0,00 h 25,1 klux 1 W/m
29.05.2015 22:00 9,7 C 8,7 C 15,9 C 83 % 1008,0 hPa 0,7 l/m 23,4 km/h (4 Bft) W-SW 0,00 h 200 klux 0 W/m
29.05.2015 23:00 9,5 C 8,5 C 15,6 C 86 % 1008,0 hPa 0,7 l/m 20,8 km/h (4 Bft) SW 0,00 h 300 lux 0 W/m
30.05.2015 00:00 9,4 C 8,4 C 15,5 C 87 % 1008,0 hPa 0,0 l/m 21,6 km/h (4 Bft) SW 0,00 h 148 klux 0 W/m
30.05.2015 01:00 9,6 C 8,5 C 15,4 C 87 % 1008,1 hPa 0,0 l/m 22,6 km/h (4 Bft) W-SW 0,00 h 200 klux 0 W/m
30.05.2015 02:00 9,6 C 8,1 C 15,2 C 88 % 1009,0 hPa 0,0 l/m 17,3 km/h (3 Bft) SW 0,00 h 1,48 klux 0 W/m
30.05.2015 03:00 9,5 C 8,0 C 15,1 C 88 % 1009,0 hPa 0,0 l/m 16,8 km/h (3 Bft) W-SW 0,00 h 11,0 klux 0 W/m
30.05.2015 04:00 9,6 C 8,3 C 15,0 C 87 % 1009,0 hPa 0,0 l/m 16,7 km/h (3 Bft) W-SW 0,00 h 106 klux 0 W/m
30.05.2015 05:00 9,6 C 8,2 C 14,9 C 84 % 1010,0 hPa 0,0 l/m 18,6 km/h (3 Bft) W-SW 0,08 h 1,54 klux 18 W/m
30.05.2015 06:00 9,3 C 7,9 C 14,7 C 85 % 1010,6 hPa 0,0 l/m 16,7 km/h (3 Bft) SW 0,17 h 25,0 klux 171 W/m
30.05.2015 07:00 9,8 C 11,0 C 14,6 C 86 % 1011,0 hPa 0,0 l/m 17,6 km/h (3 Bft) SW 0,40 h 21,1 klux 144 W/m
30.05.2015 08:00 11,2 C 16,6 C 14,5 C 81 % 1011,6 hPa 0,0 l/m 26,3 km/h (4 Bft) SW 0,90 h 67,6 klux 462 W/m
30.05.2015 09:00 12,7 C 20,2 C 14,4 C 73 % 1011,9 hPa 0,0 l/m 27,6 km/h (5 Bft) SW 0,75 h 70,8 klux 484 W/m
30.05.2015 10:00 14,0 C 24,5 C 14,4 C 61 % 1012,0 hPa 0,0 l/m 33,5 km/h (5 Bft) W-SW 0,75 h 73,2 klux 501 W/m
30.05.2015 11:00 12,1 C 19,4 C 14,5 C 65 % 1013,0 hPa 0,0 l/m 23,6 km/h (4 Bft) N 0,42 h 59,0 klux 404 W/m
30.05.2015 12:00 10,5 C 13,1 C 14,6 C 79 % 1013,7 hPa 1,4 l/m 15,3 km/h (3 Bft) N 0,00 h 17,0 klux 116 W/m
30.05.2015 13:00 8,6 C 9,1 C 14,3 C 85 % 1014,9 hPa 2,2 l/m 18,6 km/h (3 Bft) SW 0,08 h 29,3 klux 201 W/m
30.05.2015 14:00 9,8 C 10,3 C 14,3 C 82 % 1015,0 hPa 0,0 l/m 23,3 km/h (4 Bft) W-SW 0,08 h 32,6 klux 223 W/m
30.05.2015 15:00 12,9 C 24,9 C 14,3 C 72 % 1015,0 hPa 0,0 l/m 29,0 km/h (5 Bft) W-SW 0,68 h 85,9 klux 587 W/m
30.05.2015 16:00 11,2 C 14,2 C 14,5 C 76 % 1015,2 hPa 0,0 l/m 20,6 km/h (4 Bft) SW 0,08 h 37,0 klux 253 W/m
30.05.2015 17:00 13,9 C 24,2 C 14,7 C 68 % 1015,9 hPa 0,0 l/m 18,1 km/h (3 Bft) SW 0,92 h 66,2 klux 453 W/m
Min-Datum _ 30.05.15 26.05.15 27.05.15 27.05.15 29.05.15 - 25.05.15 - - - -
_ Min-Zeit 16:19 23:24 09:39 17:44 17:04 - 00:29 - - - -
Minimum _ 7,4 C 7,0 C 10,8 C 37 % 1006,8 hPa - 0,0 km/h (0 Bft) - - - -
Max-Datum _ 28.05.15 27.05.15 27.05.15 30.05.15 27.05.15 25.05.15 30.05.15 - 25.05.15 26.05.15 26.05.15
_ Max-Zeit 13:34 15:34 18:19 13:39 09:19 10:39 08:19 - 14:34 01:39 05:39
Maximum _ 20,9 C 41,8 C 17,7 C 98 % 1025,0 hPa 3,2 l/m 75,8 km/h
SW (9 Bft)
- 0,10 h 200 klux 1368 W/m
Durchschnitt _ 13,5 C 16,3 C 15,7 C 66 % 1015,5 hPa #9,4 l/m 16,4 km/h (3 Bft) SW #24:08 h 42,7 klux 256 W/m